sensor_id;sensor_type;location;lat;lon;timestamp;temperature;humidity
11894;DHT22;6006;49.696;8.662;2022-07-23T00:00:06;21.10;99.90
11894;DHT22;6006;49.696;8.662;2022-07-23T00:02:34;21.20;99.90
11894;DHT22;6006;49.696;8.662;2022-07-23T00:05:01;21.20;99.90
11894;DHT22;6006;49.696;8.662;2022-07-23T00:07:30;21.30;99.90
11894;DHT22;6006;49.696;8.662;2022-07-23T00:09:57;21.30;99.90
11894;DHT22;6006;49.696;8.662;2022-07-23T00:12:24;21.40;99.90
11894;DHT22;6006;49.696;8.662;2022-07-23T00:14:51;21.40;99.90
11894;DHT22;6006;49.696;8.662;2022-07-23T00:17:18;21.40;99.90
11894;DHT22;6006;49.696;8.662;2022-07-23T00:19:45;21.40;99.90
11894;DHT22;6006;49.696;8.662;2022-07-23T00:22:12;21.30;99.90
11894;DHT22;6006;49.696;8.662;2022-07-23T00:24:40;21.30;99.90
11894;DHT22;6006;49.696;8.662;2022-07-23T00:27:07;21.20;99.90
11894;DHT22;6006;49.696;8.662;2022-07-23T00:29:33;21.20;99.90
11894;DHT22;6006;49.696;8.662;2022-07-23T00:32:00;21.30;99.90
11894;DHT22;6006;49.696;8.662;2022-07-23T00:34:27;21.30;99.90
11894;DHT22;6006;49.696;8.662;2022-07-23T00:36:54;21.30;99.90
11894;DHT22;6006;49.696;8.662;2022-07-23T00:39:21;21.10;99.90
11894;DHT22;6006;49.696;8.662;2022-07-23T00:41:50;21.10;99.90
11894;DHT22;6006;49.696;8.662;2022-07-23T00:44:19;21.00;99.90
11894;DHT22;6006;49.696;8.662;2022-07-23T00:46:48;20.90;99.90
11894;DHT22;6006;49.696;8.662;2022-07-23T00:49:15;20.80;99.90
11894;DHT22;6006;49.696;8.662;2022-07-23T00:51:42;20.70;99.90
11894;DHT22;6006;49.696;8.662;2022-07-23T00:54:09;20.70;99.90
11894;DHT22;6006;49.696;8.662;2022-07-23T00:56:37;20.60;99.90
11894;DHT22;6006;49.696;8.662;2022-07-23T00:59:05;20.60;99.90
11894;DHT22;6006;49.696;8.662;2022-07-23T01:01:32;20.50;99.90
11894;DHT22;6006;49.696;8.662;2022-07-23T01:03:59;20.50;99.90
11894;DHT22;6006;49.696;8.662;2022-07-23T01:06:26;20.40;99.90
11894;DHT22;6006;49.696;8.662;2022-07-23T01:08:53;20.40;99.90
11894;DHT22;6006;49.696;8.662;2022-07-23T01:11:22;20.30;99.90
11894;DHT22;6006;49.696;8.662;2022-07-23T01:13:50;20.10;99.90
11894;DHT22;6006;49.696;8.662;2022-07-23T01:16:18;20.00;99.90
11894;DHT22;6006;49.696;8.662;2022-07-23T01:18:45;20.10;99.90
11894;DHT22;6006;49.696;8.662;2022-07-23T01:21:13;20.20;99.90
11894;DHT22;6006;49.696;8.662;2022-07-23T01:23:41;20.30;99.90
11894;DHT22;6006;49.696;8.662;2022-07-23T01:26:08;20.30;99.90
11894;DHT22;6006;49.696;8.662;2022-07-23T01:28:35;20.30;99.90
11894;DHT22;6006;49.696;8.662;2022-07-23T01:31:02;20.30;99.90
11894;DHT22;6006;49.696;8.662;2022-07-23T01:33:29;20.20;99.90
11894;DHT22;6006;49.696;8.662;2022-07-23T01:35:56;20.20;99.90
11894;DHT22;6006;49.696;8.662;2022-07-23T01:38:22;20.20;99.90
11894;DHT22;6006;49.696;8.662;2022-07-23T01:40:51;20.20;99.90
11894;DHT22;6006;49.696;8.662;2022-07-23T01:43:17;20.30;99.90
11894;DHT22;6006;49.696;8.662;2022-07-23T01:45:44;20.20;99.90
11894;DHT22;6006;49.696;8.662;2022-07-23T01:48:11;20.20;99.90
11894;DHT22;6006;49.696;8.662;2022-07-23T01:50:38;20.20;99.90
11894;DHT22;6006;49.696;8.662;2022-07-23T01:53:05;20.30;99.90
11894;DHT22;6006;49.696;8.662;2022-07-23T01:55:32;20.20;99.90
11894;DHT22;6006;49.696;8.662;2022-07-23T01:58:00;20.10;99.90
11894;DHT22;6006;49.696;8.662;2022-07-23T02:00:27;20.00;99.90
11894;DHT22;6006;49.696;8.662;2022-07-23T02:02:54;19.90;99.90
11894;DHT22;6006;49.696;8.662;2022-07-23T02:05:21;19.70;99.90
11894;DHT22;6006;49.696;8.662;2022-07-23T02:07:48;19.70;99.90
11894;DHT22;6006;49.696;8.662;2022-07-23T02:10:15;19.70;99.90
11894;DHT22;6006;49.696;8.662;2022-07-23T02:12:41;19.70;99.90
11894;DHT22;6006;49.696;8.662;2022-07-23T02:15:10;19.60;99.90
11894;DHT22;6006;49.696;8.662;2022-07-23T02:17:37;19.50;99.90
11894;DHT22;6006;49.696;8.662;2022-07-23T02:20:05;19.30;99.90
11894;DHT22;6006;49.696;8.662;2022-07-23T02:22:32;19.30;99.90
11894;DHT22;6006;49.696;8.662;2022-07-23T02:24:58;19.30;99.90
11894;DHT22;6006;49.696;8.662;2022-07-23T02:27:25;19.30;99.90
11894;DHT22;6006;49.696;8.662;2022-07-23T02:29:53;19.40;99.90
11894;DHT22;6006;49.696;8.662;2022-07-23T02:32:22;19.40;99.90
11894;DHT22;6006;49.696;8.662;2022-07-23T02:34:48;19.50;99.90
11894;DHT22;6006;49.696;8.662;2022-07-23T02:37:16;19.60;99.90
11894;DHT22;6006;49.696;8.662;2022-07-23T02:39:43;19.70;99.90
11894;DHT22;6006;49.696;8.662;2022-07-23T02:42:10;19.80;99.90
11894;DHT22;6006;49.696;8.662;2022-07-23T02:44:37;19.90;99.90
11894;DHT22;6006;49.696;8.662;2022-07-23T02:47:04;19.90;99.90
11894;DHT22;6006;49.696;8.662;2022-07-23T02:49:33;19.90;99.90
11894;DHT22;6006;49.696;8.662;2022-07-23T02:52:00;19.90;99.90
11894;DHT22;6006;49.696;8.662;2022-07-23T02:54:27;19.90;99.90
11894;DHT22;6006;49.696;8.662;2022-07-23T02:56:53;19.90;99.90
11894;DHT22;6006;49.696;8.662;2022-07-23T02:59:20;19.90;99.90
11894;DHT22;6006;49.696;8.662;2022-07-23T03:01:47;19.80;99.90
11894;DHT22;6006;49.696;8.662;2022-07-23T03:04:14;19.80;99.90
11894;DHT22;6006;49.696;8.662;2022-07-23T03:06:42;19.80;99.90
11894;DHT22;6006;49.696;8.662;2022-07-23T03:09:09;19.80;99.90
11894;DHT22;6006;49.696;8.662;2022-07-23T03:11:36;19.80;99.90
11894;DHT22;6006;49.696;8.662;2022-07-23T03:14:03;19.70;99.90
11894;DHT22;6006;49.696;8.662;2022-07-23T03:16:30;19.70;99.90
11894;DHT22;6006;49.696;8.662;2022-07-23T03:18:56;19.70;99.90
11894;DHT22;6006;49.696;8.662;2022-07-23T03:21:23;19.70;99.90
11894;DHT22;6006;49.696;8.662;2022-07-23T03:23:52;19.70;99.90
11894;DHT22;6006;49.696;8.662;2022-07-23T03:26:19;19.60;99.90
11894;DHT22;6006;49.696;8.662;2022-07-23T03:28:46;19.60;99.90
11894;DHT22;6006;49.696;8.662;2022-07-23T03:31:12;19.70;99.90
11894;DHT22;6006;49.696;8.662;2022-07-23T03:33:39;19.60;99.90
11894;DHT22;6006;49.696;8.662;2022-07-23T03:36:07;19.60;99.90
11894;DHT22;6006;49.696;8.662;2022-07-23T03:38:34;19.60;99.90
11894;DHT22;6006;49.696;8.662;2022-07-23T03:41:03;19.60;99.90
11894;DHT22;6006;49.696;8.662;2022-07-23T03:43:30;19.70;99.90
11894;DHT22;6006;49.696;8.662;2022-07-23T03:45:57;19.60;99.90
11894;DHT22;6006;49.696;8.662;2022-07-23T03:48:24;19.70;99.90
11894;DHT22;6006;49.696;8.662;2022-07-23T03:50:51;19.70;99.90
11894;DHT22;6006;49.696;8.662;2022-07-23T03:53:18;19.60;99.90
11894;DHT22;6006;49.696;8.662;2022-07-23T03:55:45;19.60;99.90
11894;DHT22;6006;49.696;8.662;2022-07-23T03:58:13;19.60;99.90
11894;DHT22;6006;49.696;8.662;2022-07-23T04:00:40;19.60;99.90
11894;DHT22;6006;49.696;8.662;2022-07-23T04:03:07;19.50;99.90
11894;DHT22;6006;49.696;8.662;2022-07-23T04:05:34;19.60;99.90
11894;DHT22;6006;49.696;8.662;2022-07-23T04:08:01;19.50;99.90
11894;DHT22;6006;49.696;8.662;2022-07-23T04:10:28;19.50;99.90
11894;DHT22;6006;49.696;8.662;2022-07-23T04:12:54;19.50;99.90
11894;DHT22;6006;49.696;8.662;2022-07-23T04:15:23;19.40;99.90
11894;DHT22;6006;49.696;8.662;2022-07-23T04:17:50;19.30;99.90
11894;DHT22;6006;49.696;8.662;2022-07-23T04:20:17;19.30;99.90
11894;DHT22;6006;49.696;8.662;2022-07-23T04:22:43;19.20;99.90
11894;DHT22;6006;49.696;8.662;2022-07-23T04:25:10;19.10;99.90
11894;DHT22;6006;49.696;8.662;2022-07-23T04:27:39;19.00;99.90
11894;DHT22;6006;49.696;8.662;2022-07-23T04:30:07;19.00;99.90
11894;DHT22;6006;49.696;8.662;2022-07-23T04:32:36;19.00;99.90
11894;DHT22;6006;49.696;8.662;2022-07-23T04:35:03;19.00;99.90
11894;DHT22;6006;49.696;8.662;2022-07-23T04:37:30;19.10;99.90
11894;DHT22;6006;49.696;8.662;2022-07-23T04:39:57;19.00;99.90
11894;DHT22;6006;49.696;8.662;2022-07-23T04:42:23;19.00;99.90
11894;DHT22;6006;49.696;8.662;2022-07-23T04:44:50;18.80;99.90
11894;DHT22;6006;49.696;8.662;2022-07-23T04:47:17;18.80;99.90
11894;DHT22;6006;49.696;8.662;2022-07-23T04:49:45;18.90;99.90
11894;DHT22;6006;49.696;8.662;2022-07-23T04:52:12;19.00;99.90
11894;DHT22;6006;49.696;8.662;2022-07-23T04:54:40;19.00;99.90
11894;DHT22;6006;49.696;8.662;2022-07-23T04:57:07;19.00;99.90
11894;DHT22;6006;49.696;8.662;2022-07-23T04:59:34;18.90;99.90
11894;DHT22;6006;49.696;8.662;2022-07-23T05:02:01;19.10;99.90
11894;DHT22;6006;49.696;8.662;2022-07-23T05:04:28;19.00;99.90
11894;DHT22;6006;49.696;8.662;2022-07-23T05:06:56;19.00;99.90
11894;DHT22;6006;49.696;8.662;2022-07-23T05:09:23;18.90;99.90
11894;DHT22;6006;49.696;8.662;2022-07-23T05:11:50;18.80;99.90
11894;DHT22;6006;49.696;8.662;2022-07-23T05:14:17;18.70;99.90
11894;DHT22;6006;49.696;8.662;2022-07-23T05:16:44;18.70;99.90
11894;DHT22;6006;49.696;8.662;2022-07-23T05:19:11;18.80;99.90
11894;DHT22;6006;49.696;8.662;2022-07-23T05:21:38;18.80;99.90
11894;DHT22;6006;49.696;8.662;2022-07-23T05:24:06;18.70;99.90
11894;DHT22;6006;49.696;8.662;2022-07-23T05:26:33;18.60;99.90
11894;DHT22;6006;49.696;8.662;2022-07-23T05:29:00;18.80;99.90
11894;DHT22;6006;49.696;8.662;2022-07-23T05:31:27;18.70;99.90
11894;DHT22;6006;49.696;8.662;2022-07-23T05:33:54;18.80;99.90
11894;DHT22;6006;49.696;8.662;2022-07-23T05:36:21;18.70;99.90
11894;DHT22;6006;49.696;8.662;2022-07-23T05:38:48;18.70;99.90
11894;DHT22;6006;49.696;8.662;2022-07-23T05:41:16;18.80;99.90
11894;DHT22;6006;49.696;8.662;2022-07-23T05:43:43;18.80;99.90
11894;DHT22;6006;49.696;8.662;2022-07-23T05:46:10;18.80;99.90
11894;DHT22;6006;49.696;8.662;2022-07-23T05:48:37;18.80;99.90
11894;DHT22;6006;49.696;8.662;2022-07-23T05:51:04;18.80;99.90
11894;DHT22;6006;49.696;8.662;2022-07-23T05:53:32;18.70;99.90
11894;DHT22;6006;49.696;8.662;2022-07-23T05:55:59;18.70;99.90
11894;DHT22;6006;49.696;8.662;2022-07-23T05:58:27;18.80;99.90
11894;DHT22;6006;49.696;8.662;2022-07-23T06:00:54;18.80;99.90
11894;DHT22;6006;49.696;8.662;2022-07-23T06:03:21;18.80;99.90
11894;DHT22;6006;49.696;8.662;2022-07-23T06:05:48;18.70;99.90
11894;DHT22;6006;49.696;8.662;2022-07-23T06:08:15;18.70;99.90
11894;DHT22;6006;49.696;8.662;2022-07-23T06:10:42;18.70;99.90
11894;DHT22;6006;49.696;8.662;2022-07-23T06:13:08;18.70;99.90
11894;DHT22;6006;49.696;8.662;2022-07-23T06:15:37;18.80;99.90
11894;DHT22;6006;49.696;8.662;2022-07-23T06:18:04;18.80;99.90
11894;DHT22;6006;49.696;8.662;2022-07-23T06:20:31;18.80;99.90
11894;DHT22;6006;49.696;8.662;2022-07-23T06:22:58;18.80;99.90
11894;DHT22;6006;49.696;8.662;2022-07-23T06:25:25;18.90;99.90
11894;DHT22;6006;49.696;8.662;2022-07-23T06:27:52;18.80;99.90
11894;DHT22;6006;49.696;8.662;2022-07-23T06:30:19;18.80;99.90
11894;DHT22;6006;49.696;8.662;2022-07-23T06:32:47;18.90;99.90
11894;DHT22;6006;49.696;8.662;2022-07-23T06:35:14;19.00;99.90
11894;DHT22;6006;49.696;8.662;2022-07-23T06:37:41;19.50;99.90
11894;DHT22;6006;49.696;8.662;2022-07-23T06:40:09;19.90;99.90
11894;DHT22;6006;49.696;8.662;2022-07-23T06:42:36;20.60;99.90
11894;DHT22;6006;49.696;8.662;2022-07-23T06:45:05;21.00;99.90
11894;DHT22;6006;49.696;8.662;2022-07-23T06:47:32;21.70;99.90
11894;DHT22;6006;49.696;8.662;2022-07-23T06:50:01;21.70;99.90
11894;DHT22;6006;49.696;8.662;2022-07-23T06:52:27;21.50;99.90
11894;DHT22;6006;49.696;8.662;2022-07-23T06:54:54;21.40;99.90
11894;DHT22;6006;49.696;8.662;2022-07-23T06:57:21;21.30;99.90
11894;DHT22;6006;49.696;8.662;2022-07-23T06:59:48;21.30;99.90
11894;DHT22;6006;49.696;8.662;2022-07-23T07:02:15;21.30;99.90
11894;DHT22;6006;49.696;8.662;2022-07-23T07:04:42;21.30;99.90
11894;DHT22;6006;49.696;8.662;2022-07-23T07:07:10;21.00;99.90
11894;DHT22;6006;49.696;8.662;2022-07-23T07:09:37;21.20;99.90
11894;DHT22;6006;49.696;8.662;2022-07-23T07:12:05;21.00;99.90
11894;DHT22;6006;49.696;8.662;2022-07-23T07:14:32;21.10;99.90
11894;DHT22;6006;49.696;8.662;2022-07-23T07:16:58;21.30;99.90
11894;DHT22;6006;49.696;8.662;2022-07-23T07:19:25;21.30;99.90
11894;DHT22;6006;49.696;8.662;2022-07-23T07:21:52;21.50;99.90
11894;DHT22;6006;49.696;8.662;2022-07-23T07:24:20;22.20;99.90
11894;DHT22;6006;49.696;8.662;2022-07-23T07:26:47;22.40;99.90
11894;DHT22;6006;49.696;8.662;2022-07-23T07:29:14;22.40;99.90
11894;DHT22;6006;49.696;8.662;2022-07-23T07:31:41;22.40;99.90
11894;DHT22;6006;49.696;8.662;2022-07-23T07:34:08;22.40;99.90
11894;DHT22;6006;49.696;8.662;2022-07-23T07:36:35;22.30;99.90
11894;DHT22;6006;49.696;8.662;2022-07-23T07:39:02;22.30;99.90
11894;DHT22;6006;49.696;8.662;2022-07-23T07:41:31;22.30;99.90
11894;DHT22;6006;49.696;8.662;2022-07-23T07:43:58;22.30;99.90
11894;DHT22;6006;49.696;8.662;2022-07-23T07:46:25;22.10;99.90
11894;DHT22;6006;49.696;8.662;2022-07-23T07:48:53;22.20;99.90
11894;DHT22;6006;49.696;8.662;2022-07-23T07:51:20;22.40;99.90
11894;DHT22;6006;49.696;8.662;2022-07-23T07:53:46;22.00;99.90
11894;DHT22;6006;49.696;8.662;2022-07-23T07:56:13;22.00;99.90
11894;DHT22;6006;49.696;8.662;2022-07-23T07:58:42;22.00;99.90
11894;DHT22;6006;49.696;8.662;2022-07-23T08:01:08;21.90;99.90
11894;DHT22;6006;49.696;8.662;2022-07-23T08:03:35;21.90;99.90
11894;DHT22;6006;49.696;8.662;2022-07-23T08:06:02;21.70;99.90
11894;DHT22;6006;49.696;8.662;2022-07-23T08:08:29;21.90;99.90
11894;DHT22;6006;49.696;8.662;2022-07-23T08:10:56;21.90;99.90
11894;DHT22;6006;49.696;8.662;2022-07-23T08:13:23;22.20;99.90
11894;DHT22;6006;49.696;8.662;2022-07-23T08:15:51;22.90;99.90
11894;DHT22;6006;49.696;8.662;2022-07-23T08:18:19;22.70;99.90
11894;DHT22;6006;49.696;8.662;2022-07-23T08:20:46;23.10;99.90
11894;DHT22;6006;49.696;8.662;2022-07-23T08:23:13;23.40;99.90
11894;DHT22;6006;49.696;8.662;2022-07-23T08:25:44;24.20;99.90
11894;DHT22;6006;49.696;8.662;2022-07-23T08:28:13;25.00;99.90
11894;DHT22;6006;49.696;8.662;2022-07-23T08:30:42;25.20;97.00
11894;DHT22;6006;49.696;8.662;2022-07-23T08:33:12;25.20;96.70
11894;DHT22;6006;49.696;8.662;2022-07-23T08:35:41;25.20;96.60
11894;DHT22;6006;49.696;8.662;2022-07-23T08:38:09;25.30;95.70
11894;DHT22;6006;49.696;8.662;2022-07-23T08:40:38;25.30;95.10
11894;DHT22;6006;49.696;8.662;2022-07-23T08:43:07;25.70;94.60
11894;DHT22;6006;49.696;8.662;2022-07-23T08:45:36;25.70;93.90
11894;DHT22;6006;49.696;8.662;2022-07-23T08:48:06;25.80;93.50
11894;DHT22;6006;49.696;8.662;2022-07-23T08:50:35;26.00;92.90
11894;DHT22;6006;49.696;8.662;2022-07-23T08:53:05;25.70;94.70
11894;DHT22;6006;49.696;8.662;2022-07-23T08:55:32;26.40;92.20
11894;DHT22;6006;49.696;8.662;2022-07-23T08:58:00;25.80;95.60
11894;DHT22;6006;49.696;8.662;2022-07-23T09:00:27;24.80;97.70
11894;DHT22;6006;49.696;8.662;2022-07-23T09:02:54;26.00;93.80
11894;DHT22;6006;49.696;8.662;2022-07-23T09:05:21;26.60;93.50
11894;DHT22;6006;49.696;8.662;2022-07-23T09:08:07;26.00;97.40
11894;DHT22;6006;49.696;8.662;2022-07-23T09:10:51;25.70;94.50
11894;DHT22;6006;49.696;8.662;2022-07-23T09:13:31;25.80;97.80
11894;DHT22;6006;49.696;8.662;2022-07-23T09:16:00;25.90;94.30
11894;DHT22;6006;49.696;8.662;2022-07-23T09:18:36;26.70;94.30
11894;DHT22;6006;49.696;8.662;2022-07-23T09:21:23;26.90;93.00
11894;DHT22;6006;49.696;8.662;2022-07-23T09:23:54;27.40;88.20
11894;DHT22;6006;49.696;8.662;2022-07-23T09:26:33;27.90;85.50
11894;DHT22;6006;49.696;8.662;2022-07-23T09:29:05;27.80;84.70
11894;DHT22;6006;49.696;8.662;2022-07-23T09:31:44;28.50;79.60
11894;DHT22;6006;49.696;8.662;2022-07-23T09:34:16;29.00;77.50
11894;DHT22;6006;49.696;8.662;2022-07-23T09:36:44;28.50;75.70
11894;DHT22;6006;49.696;8.662;2022-07-23T09:39:16;28.10;78.50
11894;DHT22;6006;49.696;8.662;2022-07-23T09:41:48;28.00;79.10
11894;DHT22;6006;49.696;8.662;2022-07-23T09:44:16;27.10;87.20
11894;DHT22;6006;49.696;8.662;2022-07-23T09:46:44;26.90;84.20
11894;DHT22;6006;49.696;8.662;2022-07-23T09:49:16;28.30;80.70
11894;DHT22;6006;49.696;8.662;2022-07-23T09:51:45;29.20;80.50
11894;DHT22;6006;49.696;8.662;2022-07-23T09:54:29;27.60;80.10
11894;DHT22;6006;49.696;8.662;2022-07-23T09:56:59;28.20;80.50
11894;DHT22;6006;49.696;8.662;2022-07-23T09:59:28;29.40;71.40
11894;DHT22;6006;49.696;8.662;2022-07-23T10:01:57;30.30;68.10
11894;DHT22;6006;49.696;8.662;2022-07-23T10:04:26;30.20;67.00
11894;DHT22;6006;49.696;8.662;2022-07-23T10:06:55;29.90;68.50
11894;DHT22;6006;49.696;8.662;2022-07-23T10:09:26;29.00;69.70
11894;DHT22;6006;49.696;8.662;2022-07-23T10:11:55;30.10;63.20
11894;DHT22;6006;49.696;8.662;2022-07-23T10:14:26;30.80;61.10
11894;DHT22;6006;49.696;8.662;2022-07-23T10:16:56;30.20;61.00
11894;DHT22;6006;49.696;8.662;2022-07-23T10:19:23;29.80;65.80
11894;DHT22;6006;49.696;8.662;2022-07-23T10:21:54;29.60;62.70
11894;DHT22;6006;49.696;8.662;2022-07-23T10:24:45;30.30;64.40
11894;DHT22;6006;49.696;8.662;2022-07-23T10:27:47;29.30;60.90
11894;DHT22;6006;49.696;8.662;2022-07-23T10:30:22;28.70;66.70
11894;DHT22;6006;49.696;8.662;2022-07-23T10:33:00;28.40;68.70
11894;DHT22;6006;49.696;8.662;2022-07-23T10:35:36;28.60;67.70
11894;DHT22;6006;49.696;8.662;2022-07-23T10:38:11;28.50;65.50
11894;DHT22;6006;49.696;8.662;2022-07-23T10:40:53;29.00;65.30
11894;DHT22;6006;49.696;8.662;2022-07-23T10:43:21;29.30;62.80
11894;DHT22;6006;49.696;8.662;2022-07-23T10:45:48;29.30;62.30
11894;DHT22;6006;49.696;8.662;2022-07-23T10:48:17;29.50;63.70
11894;DHT22;6006;49.696;8.662;2022-07-23T10:51:07;29.00;63.70
11894;DHT22;6006;49.696;8.662;2022-07-23T10:53:54;28.50;64.70
11894;DHT22;6006;49.696;8.662;2022-07-23T10:59:24;29.20;59.60
11894;DHT22;6006;49.696;8.662;2022-07-23T11:01:51;29.30;57.80
11894;DHT22;6006;49.696;8.662;2022-07-23T11:04:18;29.70;57.30
11894;DHT22;6006;49.696;8.662;2022-07-23T11:07:06;30.60;57.90
11894;DHT22;6006;49.696;8.662;2022-07-23T11:09:39;30.00;55.70
11894;DHT22;6006;49.696;8.662;2022-07-23T11:12:36;30.30;60.00
11894;DHT22;6006;49.696;8.662;2022-07-23T11:15:07;30.30;54.80
11894;DHT22;6006;49.696;8.662;2022-07-23T11:17:36;29.40;56.30
11894;DHT22;6006;49.696;8.662;2022-07-23T11:20:16;29.60;52.90
11894;DHT22;6006;49.696;8.662;2022-07-23T11:22:50;29.80;58.20
11894;DHT22;6006;49.696;8.662;2022-07-23T11:25:34;29.50;54.10
11894;DHT22;6006;49.696;8.662;2022-07-23T11:28:15;30.90;50.00
11894;DHT22;6006;49.696;8.662;2022-07-23T11:30:45;31.90;45.50
11894;DHT22;6006;49.696;8.662;2022-07-23T11:33:18;32.00;43.00
11894;DHT22;6006;49.696;8.662;2022-07-23T11:35:47;32.20;42.80
11894;DHT22;6006;49.696;8.662;2022-07-23T11:38:17;32.50;41.70
11894;DHT22;6006;49.696;8.662;2022-07-23T11:40:47;32.80;38.00
11894;DHT22;6006;49.696;8.662;2022-07-23T11:43:14;33.10;36.60
11894;DHT22;6006;49.696;8.662;2022-07-23T11:45:44;32.30;38.00
11894;DHT22;6006;49.696;8.662;2022-07-23T11:48:17;31.40;40.20
11894;DHT22;6006;49.696;8.662;2022-07-23T11:50:46;31.70;38.60
11894;DHT22;6006;49.696;8.662;2022-07-23T11:53:13;30.90;41.10
11894;DHT22;6006;49.696;8.662;2022-07-23T11:55:40;30.10;42.20
11894;DHT22;6006;49.696;8.662;2022-07-23T11:58:07;30.10;42.00
11894;DHT22;6006;49.696;8.662;2022-07-23T12:00:34;30.10;42.80
11894;DHT22;6006;49.696;8.662;2022-07-23T12:03:03;29.50;50.70
11894;DHT22;6006;49.696;8.662;2022-07-23T12:05:33;29.30;47.60
11894;DHT22;6006;49.696;8.662;2022-07-23T12:08:02;28.90;48.60
11894;DHT22;6006;49.696;8.662;2022-07-23T12:10:34;29.40;49.60
11894;DHT22;6006;49.696;8.662;2022-07-23T12:13:03;30.30;45.20
11894;DHT22;6006;49.696;8.662;2022-07-23T12:15:31;30.70;47.50
11894;DHT22;6006;49.696;8.662;2022-07-23T12:17:59;31.40;42.70
11894;DHT22;6006;49.696;8.662;2022-07-23T12:20:29;31.70;44.00
11894;DHT22;6006;49.696;8.662;2022-07-23T12:22:59;31.30;40.80
11894;DHT22;6006;49.696;8.662;2022-07-23T12:25:28;30.80;40.40
11894;DHT22;6006;49.696;8.662;2022-07-23T12:28:00;31.20;45.10
11894;DHT22;6006;49.696;8.662;2022-07-23T12:30:29;31.10;39.90
11894;DHT22;6006;49.696;8.662;2022-07-23T12:32:57;31.60;37.60
11894;DHT22;6006;49.696;8.662;2022-07-23T12:35:33;30.80;40.80
11894;DHT22;6006;49.696;8.662;2022-07-23T12:38:02;30.70;42.40
11894;DHT22;6006;49.696;8.662;2022-07-23T12:40:31;31.00;43.70
11894;DHT22;6006;49.696;8.662;2022-07-23T12:43:00;30.20;40.40
11894;DHT22;6006;49.696;8.662;2022-07-23T12:45:41;29.90;45.80
11894;DHT22;6006;49.696;8.662;2022-07-23T12:48:14;29.40;47.90
11894;DHT22;6006;49.696;8.662;2022-07-23T12:50:56;28.10;45.80
11894;DHT22;6006;49.696;8.662;2022-07-23T12:53:24;28.70;43.20
11894;DHT22;6006;49.696;8.662;2022-07-23T12:55:59;28.20;48.80
11894;DHT22;6006;49.696;8.662;2022-07-23T12:58:26;28.70;44.50
11894;DHT22;6006;49.696;8.662;2022-07-23T13:01:05;29.00;46.20
11894;DHT22;6006;49.696;8.662;2022-07-23T13:03:37;28.90;44.20
11894;DHT22;6006;49.696;8.662;2022-07-23T13:06:08;28.30;49.60
11894;DHT22;6006;49.696;8.662;2022-07-23T13:08:36;28.30;49.60
11894;DHT22;6006;49.696;8.662;2022-07-23T13:11:04;28.80;48.90
11894;DHT22;6006;49.696;8.662;2022-07-23T13:13:33;28.90;48.10
11894;DHT22;6006;49.696;8.662;2022-07-23T13:16:01;29.10;49.40
11894;DHT22;6006;49.696;8.662;2022-07-23T13:18:28;29.50;44.30
11894;DHT22;6006;49.696;8.662;2022-07-23T13:20:56;29.50;44.00
11894;DHT22;6006;49.696;8.662;2022-07-23T13:23:25;29.90;45.10
11894;DHT22;6006;49.696;8.662;2022-07-23T13:25:52;30.30;43.80
11894;DHT22;6006;49.696;8.662;2022-07-23T13:28:20;30.10;42.20
11894;DHT22;6006;49.696;8.662;2022-07-23T13:30:47;30.30;42.20
11894;DHT22;6006;49.696;8.662;2022-07-23T13:33:16;30.90;43.10
11894;DHT22;6006;49.696;8.662;2022-07-23T13:35:43;32.20;38.50
11894;DHT22;6006;49.696;8.662;2022-07-23T13:38:10;32.00;42.30
11894;DHT22;6006;49.696;8.662;2022-07-23T13:40:40;32.50;37.10
11894;DHT22;6006;49.696;8.662;2022-07-23T13:43:08;32.80;34.30
11894;DHT22;6006;49.696;8.662;2022-07-23T13:45:36;32.40;35.00
11894;DHT22;6006;49.696;8.662;2022-07-23T13:48:04;32.30;32.00
11894;DHT22;6006;49.696;8.662;2022-07-23T13:50:32;32.40;30.40
11894;DHT22;6006;49.696;8.662;2022-07-23T13:53:01;32.30;32.00
11894;DHT22;6006;49.696;8.662;2022-07-23T13:55:28;31.20;30.30
11894;DHT22;6006;49.696;8.662;2022-07-23T13:57:57;30.60;36.70
11894;DHT22;6006;49.696;8.662;2022-07-23T14:00:24;30.40;36.80
11894;DHT22;6006;49.696;8.662;2022-07-23T14:02:52;29.70;37.50
11894;DHT22;6006;49.696;8.662;2022-07-23T14:05:20;29.60;35.50
11894;DHT22;6006;49.696;8.662;2022-07-23T14:07:47;29.80;36.00
11894;DHT22;6006;49.696;8.662;2022-07-23T14:10:15;29.90;36.70
11894;DHT22;6006;49.696;8.662;2022-07-23T14:12:43;30.00;42.20
11894;DHT22;6006;49.696;8.662;2022-07-23T14:15:11;30.30;37.50
11894;DHT22;6006;49.696;8.662;2022-07-23T14:17:39;31.00;35.20
11894;DHT22;6006;49.696;8.662;2022-07-23T14:20:07;31.90;29.50
11894;DHT22;6006;49.696;8.662;2022-07-23T14:22:36;31.80;30.20
11894;DHT22;6006;49.696;8.662;2022-07-23T14:25:04;32.70;31.40
11894;DHT22;6006;49.696;8.662;2022-07-23T14:27:32;32.50;30.00
11894;DHT22;6006;49.696;8.662;2022-07-23T14:29:59;32.90;26.80
11894;DHT22;6006;49.696;8.662;2022-07-23T14:32:27;32.90;26.40
11894;DHT22;6006;49.696;8.662;2022-07-23T14:34:54;33.40;23.90
11894;DHT22;6006;49.696;8.662;2022-07-23T14:37:22;32.40;26.40
11894;DHT22;6006;49.696;8.662;2022-07-23T14:39:50;32.20;26.70
11894;DHT22;6006;49.696;8.662;2022-07-23T14:42:18;31.70;26.80
11894;DHT22;6006;49.696;8.662;2022-07-23T14:44:45;31.70;27.10
11894;DHT22;6006;49.696;8.662;2022-07-23T14:47:12;31.20;28.60
11894;DHT22;6006;49.696;8.662;2022-07-23T14:49:40;30.80;29.30
11894;DHT22;6006;49.696;8.662;2022-07-23T14:52:07;31.10;28.20
11894;DHT22;6006;49.696;8.662;2022-07-23T14:54:34;31.10;26.10
11894;DHT22;6006;49.696;8.662;2022-07-23T14:57:03;31.20;27.50
11894;DHT22;6006;49.696;8.662;2022-07-23T14:59:30;31.90;23.60
11894;DHT22;6006;49.696;8.662;2022-07-23T15:02:00;30.90;24.60
11894;DHT22;6006;49.696;8.662;2022-07-23T15:04:31;30.80;23.60
11894;DHT22;6006;49.696;8.662;2022-07-23T15:07:03;31.60;25.40
11894;DHT22;6006;49.696;8.662;2022-07-23T15:09:34;31.90;25.50
11894;DHT22;6006;49.696;8.662;2022-07-23T15:12:06;31.80;26.00
11894;DHT22;6006;49.696;8.662;2022-07-23T15:14:35;32.00;24.00
11894;DHT22;6006;49.696;8.662;2022-07-23T15:17:03;31.80;22.90
11894;DHT22;6006;49.696;8.662;2022-07-23T15:19:36;31.50;24.00
11894;DHT22;6006;49.696;8.662;2022-07-23T15:22:14;30.70;23.80
11894;DHT22;6006;49.696;8.662;2022-07-23T15:24:43;30.70;23.40
11894;DHT22;6006;49.696;8.662;2022-07-23T15:27:13;30.60;25.40
11894;DHT22;6006;49.696;8.662;2022-07-23T15:29:47;31.00;21.90
11894;DHT22;6006;49.696;8.662;2022-07-23T15:32:18;30.70;25.10
11894;DHT22;6006;49.696;8.662;2022-07-23T15:35:02;30.10;29.30
11894;DHT22;6006;49.696;8.662;2022-07-23T15:37:35;29.30;27.30
11894;DHT22;6006;49.696;8.662;2022-07-23T15:40:07;29.40;29.70
11894;DHT22;6006;49.696;8.662;2022-07-23T15:42:44;30.50;25.90
11894;DHT22;6006;49.696;8.662;2022-07-23T15:45:19;30.70;27.40
11894;DHT22;6006;49.696;8.662;2022-07-23T15:47:47;30.80;24.30
11894;DHT22;6006;49.696;8.662;2022-07-23T15:50:18;31.00;24.00
11894;DHT22;6006;49.696;8.662;2022-07-23T15:52:52;30.50;26.40
11894;DHT22;6006;49.696;8.662;2022-07-23T15:55:22;30.10;28.10
11894;DHT22;6006;49.696;8.662;2022-07-23T15:57:50;29.70;27.20